Bethel, Maine
Current Conditions -  °F | °C
As of 2:52 PM on Friday 21 Nov 2014 (Local Time) from KBML Reporting Station
Overcast Overcast  
Wind Chill: 15°   Ceiling: 3700
Heat Index: 21°   Visibility: 10mi
Dew Point:   Wind: 5mph
Humidity: 55%   Direction: NA
Pressure: 30.1"   Gusts: 23mph
Location:  44.4°N, 70.79°W
Report Text: KBML 211952Z AUTO VRB04G20KT 10SM FEW030 BKN037 OVC046 M06/M14 A3010 RMK AO2 SNE1853 SLP214 P0000 T10611139
Loading
Personal Weather Stations






























Interactive Weather Map New forecast layout! Learn more

10-Day Weather Forecast

Advertisements
Track Severe Weather on mobile